sensor_id;sensor_type;location;lat;lon;timestamp;P1;durP1;ratioP1;P2;durP2;ratioP2
22490;SDS011;11412;50.802;4.350;2023-04-09T00:02:13;22.42;;;17.92;;
22490;SDS011;11412;50.802;4.350;2023-04-09T00:04:40;22.73;;;17.52;;
22490;SDS011;11412;50.802;4.350;2023-04-09T00:07:05;22.75;;;17.75;;
22490;SDS011;11412;50.802;4.350;2023-04-09T00:09:31;24.05;;;18.05;;
22490;SDS011;11412;50.802;4.350;2023-04-09T00:11:56;23.75;;;16.77;;
22490;SDS011;11412;50.802;4.350;2023-04-09T00:14:22;20.95;;;17.02;;
22490;SDS011;11412;50.802;4.350;2023-04-09T00:16:48;22.58;;;16.80;;
22490;SDS011;11412;50.802;4.350;2023-04-09T00:19:14;21.88;;;16.85;;
22490;SDS011;11412;50.802;4.350;2023-04-09T00:21:39;27.02;;;19.73;;
22490;SDS011;11412;50.802;4.350;2023-04-09T00:24:05;25.83;;;19.55;;
22490;SDS011;11412;50.802;4.350;2023-04-09T00:26:31;27.92;;;20.05;;
22490;SDS011;11412;50.802;4.350;2023-04-09T00:28:56;24.50;;;18.58;;
22490;SDS011;11412;50.802;4.350;2023-04-09T00:31:22;23.33;;;18.50;;
22490;SDS011;11412;50.802;4.350;2023-04-09T00:33:48;26.40;;;18.50;;
22490;SDS011;11412;50.802;4.350;2023-04-09T00:36:13;25.38;;;18.67;;
22490;SDS011;11412;50.802;4.350;2023-04-09T00:38:39;25.92;;;18.48;;
22490;SDS011;11412;50.802;4.350;2023-04-09T00:41:05;26.92;;;18.33;;
22490;SDS011;11412;50.802;4.350;2023-04-09T00:43:30;27.60;;;19.45;;
22490;SDS011;11412;50.802;4.350;2023-04-09T00:45:57;26.23;;;19.30;;
22490;SDS011;11412;50.802;4.350;2023-04-09T00:48:23;23.40;;;18.73;;
22490;SDS011;11412;50.802;4.350;2023-04-09T00:50:49;29.17;;;20.35;;
22490;SDS011;11412;50.802;4.350;2023-04-09T00:53:15;26.67;;;20.02;;
22490;SDS011;11412;50.802;4.350;2023-04-09T00:55:42;25.80;;;19.95;;
22490;SDS011;11412;50.802;4.350;2023-04-09T00:58:08;26.42;;;20.70;;
22490;SDS011;11412;50.802;4.350;2023-04-09T01:00:33;25.52;;;18.10;;
22490;SDS011;11412;50.802;4.350;2023-04-09T01:02:59;25.80;;;20.52;;
22490;SDS011;11412;50.802;4.350;2023-04-09T01:05:28;24.13;;;18.13;;
22490;SDS011;11412;50.802;4.350;2023-04-09T01:13:32;24.83;;;20.08;;
22490;SDS011;11412;50.802;4.350;2023-04-09T01:16:03;25.83;;;19.67;;
22490;SDS011;11412;50.802;4.350;2023-04-09T01:18:44;27.10;;;21.20;;
22490;SDS011;11412;50.802;4.350;2023-04-09T01:21:16;30.38;;;22.05;;
22490;SDS011;11412;50.802;4.350;2023-04-09T01:23:46;24.95;;;19.30;;
22490;SDS011;11412;50.802;4.350;2023-04-09T01:29:22;27.98;;;20.38;;
22490;SDS011;11412;50.802;4.350;2023-04-09T01:31:49;24.10;;;18.30;;
22490;SDS011;11412;50.802;4.350;2023-04-09T01:34:16;27.08;;;20.48;;
22490;SDS011;11412;50.802;4.350;2023-04-09T01:36:47;29.83;;;21.13;;
22490;SDS011;11412;50.802;4.350;2023-04-09T01:39:17;28.73;;;21.05;;
22490;SDS011;11412;50.802;4.350;2023-04-09T01:41:43;31.92;;;20.15;;
22490;SDS011;11412;50.802;4.350;2023-04-09T01:44:10;26.38;;;20.38;;
22490;SDS011;11412;50.802;4.350;2023-04-09T01:46:38;30.67;;;20.30;;
22490;SDS011;11412;50.802;4.350;2023-04-09T01:49:04;29.00;;;21.73;;
22490;SDS011;11412;50.802;4.350;2023-04-09T01:51:31;30.52;;;21.73;;
22490;SDS011;11412;50.802;4.350;2023-04-09T01:53:57;29.00;;;22.23;;
22490;SDS011;11412;50.802;4.350;2023-04-09T01:56:24;29.73;;;22.25;;
22490;SDS011;11412;50.802;4.350;2023-04-09T01:58:50;32.58;;;21.63;;
22490;SDS011;11412;50.802;4.350;2023-04-09T02:01:21;31.00;;;23.02;;
22490;SDS011;11412;50.802;4.350;2023-04-09T02:03:53;33.97;;;23.55;;
22490;SDS011;11412;50.802;4.350;2023-04-09T02:09:12;32.33;;;23.45;;
22490;SDS011;11412;50.802;4.350;2023-04-09T02:11:42;34.78;;;24.02;;
22490;SDS011;11412;50.802;4.350;2023-04-09T02:14:10;38.72;;;25.25;;
22490;SDS011;11412;50.802;4.350;2023-04-09T02:16:37;36.50;;;26.27;;
22490;SDS011;11412;50.802;4.350;2023-04-09T02:19:03;40.15;;;27.52;;
22490;SDS011;11412;50.802;4.350;2023-04-09T02:21:29;40.90;;;27.48;;
22490;SDS011;11412;50.802;4.350;2023-04-09T02:23:56;39.67;;;26.58;;
22490;SDS011;11412;50.802;4.350;2023-04-09T02:26:22;45.20;;;28.33;;
22490;SDS011;11412;50.802;4.350;2023-04-09T02:28:48;38.65;;;27.20;;
22490;SDS011;11412;50.802;4.350;2023-04-09T02:31:14;42.13;;;29.48;;
22490;SDS011;11412;50.802;4.350;2023-04-09T02:33:40;43.95;;;29.60;;
22490;SDS011;11412;50.802;4.350;2023-04-09T02:36:09;44.53;;;29.38;;
22490;SDS011;11412;50.802;4.350;2023-04-09T02:38:36;44.08;;;30.52;;
22490;SDS011;11412;50.802;4.350;2023-04-09T02:41:04;48.35;;;32.10;;
22490;SDS011;11412;50.802;4.350;2023-04-09T02:43:30;48.88;;;30.98;;
22490;SDS011;11412;50.802;4.350;2023-04-09T02:45:56;42.10;;;28.63;;
22490;SDS011;11412;50.802;4.350;2023-04-09T02:48:21;45.55;;;29.58;;
22490;SDS011;11412;50.802;4.350;2023-04-09T02:50:47;45.53;;;29.85;;
22490;SDS011;11412;50.802;4.350;2023-04-09T02:53:12;42.70;;;29.15;;
22490;SDS011;11412;50.802;4.350;2023-04-09T02:55:38;41.53;;;29.55;;
22490;SDS011;11412;50.802;4.350;2023-04-09T02:58:04;48.28;;;30.95;;
22490;SDS011;11412;50.802;4.350;2023-04-09T03:00:29;40.25;;;28.52;;
22490;SDS011;11412;50.802;4.350;2023-04-09T03:02:55;41.90;;;28.38;;
22490;SDS011;11412;50.802;4.350;2023-04-09T03:05:21;51.33;;;30.50;;
22490;SDS011;11412;50.802;4.350;2023-04-09T03:07:47;46.90;;;30.80;;
22490;SDS011;11412;50.802;4.350;2023-04-09T03:10:13;45.63;;;28.83;;
22490;SDS011;11412;50.802;4.350;2023-04-09T03:12:39;43.58;;;28.77;;
22490;SDS011;11412;50.802;4.350;2023-04-09T03:15:05;39.95;;;27.55;;
22490;SDS011;11412;50.802;4.350;2023-04-09T03:17:31;41.15;;;26.95;;
22490;SDS011;11412;50.802;4.350;2023-04-09T03:19:57;50.05;;;30.50;;
22490;SDS011;11412;50.802;4.350;2023-04-09T03:22:23;48.85;;;30.50;;
22490;SDS011;11412;50.802;4.350;2023-04-09T03:24:49;47.15;;;32.13;;
22490;SDS011;11412;50.802;4.350;2023-04-09T03:27:14;43.92;;;30.50;;
22490;SDS011;11412;50.802;4.350;2023-04-09T03:29:40;41.67;;;28.65;;
22490;SDS011;11412;50.802;4.350;2023-04-09T03:32:06;43.38;;;30.30;;
22490;SDS011;11412;50.802;4.350;2023-04-09T03:34:31;41.55;;;29.35;;
22490;SDS011;11412;50.802;4.350;2023-04-09T03:36:57;42.50;;;28.65;;
22490;SDS011;11412;50.802;4.350;2023-04-09T03:39:22;42.72;;;29.35;;
22490;SDS011;11412;50.802;4.350;2023-04-09T03:41:48;43.40;;;29.98;;
22490;SDS011;11412;50.802;4.350;2023-04-09T03:44:14;45.70;;;31.00;;
22490;SDS011;11412;50.802;4.350;2023-04-09T03:46:40;46.65;;;30.45;;
22490;SDS011;11412;50.802;4.350;2023-04-09T03:49:06;46.15;;;30.23;;
22490;SDS011;11412;50.802;4.350;2023-04-09T03:51:32;44.05;;;29.20;;
22490;SDS011;11412;50.802;4.350;2023-04-09T03:53:58;47.47;;;31.00;;
22490;SDS011;11412;50.802;4.350;2023-04-09T03:56:23;51.80;;;33.88;;
22490;SDS011;11412;50.802;4.350;2023-04-09T03:58:49;49.78;;;32.17;;
22490;SDS011;11412;50.802;4.350;2023-04-09T04:01:15;49.83;;;33.00;;
22490;SDS011;11412;50.802;4.350;2023-04-09T04:03:41;57.58;;;35.97;;
22490;SDS011;11412;50.802;4.350;2023-04-09T04:06:07;56.00;;;35.80;;
22490;SDS011;11412;50.802;4.350;2023-04-09T04:08:35;58.38;;;36.53;;
22490;SDS011;11412;50.802;4.350;2023-04-09T04:11:05;58.13;;;37.55;;
22490;SDS011;11412;50.802;4.350;2023-04-09T04:13:30;55.10;;;35.90;;
22490;SDS011;11412;50.802;4.350;2023-04-09T04:15:56;58.25;;;35.55;;
22490;SDS011;11412;50.802;4.350;2023-04-09T04:18:21;58.83;;;37.78;;
22490;SDS011;11412;50.802;4.350;2023-04-09T04:20:47;61.65;;;38.33;;
22490;SDS011;11412;50.802;4.350;2023-04-09T04:23:13;59.42;;;37.70;;
22490;SDS011;11412;50.802;4.350;2023-04-09T04:25:41;60.42;;;37.53;;
22490;SDS011;11412;50.802;4.350;2023-04-09T04:28:07;58.60;;;37.05;;
22490;SDS011;11412;50.802;4.350;2023-04-09T04:30:33;55.45;;;37.47;;
22490;SDS011;11412;50.802;4.350;2023-04-09T04:32:58;60.90;;;38.13;;
22490;SDS011;11412;50.802;4.350;2023-04-09T04:35:24;58.70;;;39.00;;
22490;SDS011;11412;50.802;4.350;2023-04-09T04:37:50;57.30;;;37.33;;
22490;SDS011;11412;50.802;4.350;2023-04-09T04:40:16;64.47;;;38.22;;
22490;SDS011;11412;50.802;4.350;2023-04-09T04:42:41;58.70;;;38.15;;
22490;SDS011;11412;50.802;4.350;2023-04-09T04:45:07;57.95;;;37.33;;
22490;SDS011;11412;50.802;4.350;2023-04-09T04:47:33;60.88;;;37.75;;
22490;SDS011;11412;50.802;4.350;2023-04-09T04:49:59;63.13;;;38.85;;
22490;SDS011;11412;50.802;4.350;2023-04-09T04:52:25;63.53;;;38.63;;
22490;SDS011;11412;50.802;4.350;2023-04-09T04:54:51;59.67;;;39.22;;
22490;SDS011;11412;50.802;4.350;2023-04-09T04:57:16;63.15;;;39.97;;
22490;SDS011;11412;50.802;4.350;2023-04-09T04:59:42;57.72;;;37.35;;
22490;SDS011;11412;50.802;4.350;2023-04-09T05:02:08;62.58;;;38.85;;
22490;SDS011;11412;50.802;4.350;2023-04-09T05:04:34;56.28;;;37.80;;
22490;SDS011;11412;50.802;4.350;2023-04-09T05:07:00;62.55;;;40.40;;
22490;SDS011;11412;50.802;4.350;2023-04-09T05:09:26;63.22;;;39.92;;
22490;SDS011;11412;50.802;4.350;2023-04-09T05:11:51;59.83;;;38.60;;
22490;SDS011;11412;50.802;4.350;2023-04-09T05:14:17;63.20;;;39.22;;
22490;SDS011;11412;50.802;4.350;2023-04-09T05:16:45;60.28;;;39.33;;
22490;SDS011;11412;50.802;4.350;2023-04-09T05:19:11;63.67;;;38.72;;
22490;SDS011;11412;50.802;4.350;2023-04-09T05:21:36;62.85;;;38.58;;
22490;SDS011;11412;50.802;4.350;2023-04-09T05:24:02;58.88;;;36.95;;
22490;SDS011;11412;50.802;4.350;2023-04-09T05:26:28;58.70;;;38.33;;
22490;SDS011;11412;50.802;4.350;2023-04-09T05:28:54;62.30;;;38.28;;
22490;SDS011;11412;50.802;4.350;2023-04-09T05:31:19;57.67;;;37.92;;
22490;SDS011;11412;50.802;4.350;2023-04-09T05:33:45;58.95;;;38.33;;
22490;SDS011;11412;50.802;4.350;2023-04-09T05:36:17;60.38;;;37.65;;
22490;SDS011;11412;50.802;4.350;2023-04-09T05:38:44;58.47;;;39.42;;
22490;SDS011;11412;50.802;4.350;2023-04-09T05:41:11;55.85;;;36.50;;
22490;SDS011;11412;50.802;4.350;2023-04-09T05:43:36;53.58;;;36.13;;
22490;SDS011;11412;50.802;4.350;2023-04-09T05:46:02;55.40;;;34.33;;
22490;SDS011;11412;50.802;4.350;2023-04-09T05:48:28;54.60;;;35.22;;
22490;SDS011;11412;50.802;4.350;2023-04-09T05:50:54;55.55;;;34.30;;
22490;SDS011;11412;50.802;4.350;2023-04-09T05:53:19;53.90;;;34.67;;
22490;SDS011;11412;50.802;4.350;2023-04-09T05:55:46;54.67;;;33.95;;
22490;SDS011;11412;50.802;4.350;2023-04-09T05:58:13;51.78;;;33.25;;
22490;SDS011;11412;50.802;4.350;2023-04-09T06:00:40;51.30;;;33.80;;
22490;SDS011;11412;50.802;4.350;2023-04-09T06:03:07;56.58;;;35.78;;
22490;SDS011;11412;50.802;4.350;2023-04-09T06:05:33;52.85;;;34.92;;
22490;SDS011;11412;50.802;4.350;2023-04-09T06:07:58;54.30;;;35.25;;
22490;SDS011;11412;50.802;4.350;2023-04-09T06:10:24;51.13;;;32.95;;
22490;SDS011;11412;50.802;4.350;2023-04-09T06:12:50;52.90;;;34.92;;
22490;SDS011;11412;50.802;4.350;2023-04-09T06:15:16;50.22;;;33.78;;
22490;SDS011;11412;50.802;4.350;2023-04-09T06:17:42;50.42;;;34.63;;
22490;SDS011;11412;50.802;4.350;2023-04-09T06:20:08;58.03;;;37.08;;
22490;SDS011;11412;50.802;4.350;2023-04-09T06:22:34;56.63;;;36.05;;
22490;SDS011;11412;50.802;4.350;2023-04-09T06:25:01;57.67;;;36.63;;
22490;SDS011;11412;50.802;4.350;2023-04-09T06:27:28;54.55;;;36.22;;
22490;SDS011;11412;50.802;4.350;2023-04-09T06:29:54;54.53;;;35.03;;
22490;SDS011;11412;50.802;4.350;2023-04-09T06:32:20;52.58;;;34.60;;
22490;SDS011;11412;50.802;4.350;2023-04-09T06:34:46;50.50;;;33.97;;
22490;SDS011;11412;50.802;4.350;2023-04-09T06:37:12;49.03;;;33.88;;
22490;SDS011;11412;50.802;4.350;2023-04-09T06:39:37;43.72;;;31.00;;
22490;SDS011;11412;50.802;4.350;2023-04-09T06:42:04;45.58;;;32.40;;
22490;SDS011;11412;50.802;4.350;2023-04-09T06:44:30;39.90;;;29.38;;
22490;SDS011;11412;50.802;4.350;2023-04-09T06:46:57;44.42;;;30.55;;
22490;SDS011;11412;50.802;4.350;2023-04-09T06:49:23;42.55;;;30.20;;
22490;SDS011;11412;50.802;4.350;2023-04-09T06:51:48;45.17;;;30.33;;
22490;SDS011;11412;50.802;4.350;2023-04-09T06:54:17;38.60;;;28.20;;
22490;SDS011;11412;50.802;4.350;2023-04-09T06:56:43;38.17;;;28.70;;
22490;SDS011;11412;50.802;4.350;2023-04-09T06:59:09;38.17;;;27.65;;
22490;SDS011;11412;50.802;4.350;2023-04-09T07:01:35;37.00;;;27.10;;
22490;SDS011;11412;50.802;4.350;2023-04-09T07:04:01;40.50;;;27.63;;
22490;SDS011;11412;50.802;4.350;2023-04-09T07:06:27;38.78;;;27.20;;
22490;SDS011;11412;50.802;4.350;2023-04-09T07:08:53;37.42;;;26.45;;
22490;SDS011;11412;50.802;4.350;2023-04-09T07:11:19;35.88;;;27.33;;
22490;SDS011;11412;50.802;4.350;2023-04-09T07:13:45;35.20;;;26.90;;
22490;SDS011;11412;50.802;4.350;2023-04-09T07:16:11;31.73;;;24.52;;
22490;SDS011;11412;50.802;4.350;2023-04-09T07:18:37;32.53;;;25.25;;
22490;SDS011;11412;50.802;4.350;2023-04-09T07:21:02;33.40;;;24.60;;
22490;SDS011;11412;50.802;4.350;2023-04-09T07:23:28;33.25;;;25.45;;
22490;SDS011;11412;50.802;4.350;2023-04-09T07:25:54;32.97;;;24.70;;
22490;SDS011;11412;50.802;4.350;2023-04-09T07:28:20;30.00;;;23.92;;
22490;SDS011;11412;50.802;4.350;2023-04-09T07:30:46;31.00;;;23.52;;
22490;SDS011;11412;50.802;4.350;2023-04-09T07:33:11;31.95;;;23.25;;
22490;SDS011;11412;50.802;4.350;2023-04-09T07:35:37;31.35;;;23.20;;
22490;SDS011;11412;50.802;4.350;2023-04-09T07:38:03;28.38;;;22.67;;
22490;SDS011;11412;50.802;4.350;2023-04-09T07:40:29;29.42;;;22.20;;
22490;SDS011;11412;50.802;4.350;2023-04-09T07:42:54;26.38;;;21.15;;
22490;SDS011;11412;50.802;4.350;2023-04-09T07:45:22;29.73;;;22.25;;
22490;SDS011;11412;50.802;4.350;2023-04-09T07:47:47;31.73;;;21.88;;
22490;SDS011;11412;50.802;4.350;2023-04-09T07:50:13;32.25;;;23.10;;
22490;SDS011;11412;50.802;4.350;2023-04-09T07:52:39;28.63;;;23.13;;
22490;SDS011;11412;50.802;4.350;2023-04-09T07:55:06;31.38;;;21.70;;
22490;SDS011;11412;50.802;4.350;2023-04-09T07:57:31;29.65;;;22.08;;
22490;SDS011;11412;50.802;4.350;2023-04-09T07:59:57;34.70;;;22.77;;
22490;SDS011;11412;50.802;4.350;2023-04-09T08:02:23;32.72;;;22.20;;
22490;SDS011;11412;50.802;4.350;2023-04-09T08:04:50;30.73;;;22.90;;
22490;SDS011;11412;50.802;4.350;2023-04-09T08:07:16;32.08;;;23.45;;
22490;SDS011;11412;50.802;4.350;2023-04-09T08:09:42;30.48;;;22.52;;
22490;SDS011;11412;50.802;4.350;2023-04-09T08:12:08;28.80;;;21.75;;
22490;SDS011;11412;50.802;4.350;2023-04-09T08:14:33;32.35;;;21.63;;
22490;SDS011;11412;50.802;4.350;2023-04-09T08:16:59;30.38;;;21.83;;
22490;SDS011;11412;50.802;4.350;2023-04-09T08:19:25;27.83;;;21.17;;
22490;SDS011;11412;50.802;4.350;2023-04-09T08:21:51;29.48;;;21.05;;
22490;SDS011;11412;50.802;4.350;2023-04-09T08:24:17;25.70;;;18.98;;
22490;SDS011;11412;50.802;4.350;2023-04-09T08:26:42;28.30;;;20.13;;
22490;SDS011;11412;50.802;4.350;2023-04-09T08:29:09;28.25;;;19.90;;
22490;SDS011;11412;50.802;4.350;2023-04-09T08:31:36;24.65;;;18.92;;
22490;SDS011;11412;50.802;4.350;2023-04-09T08:34:02;25.90;;;17.77;;
22490;SDS011;11412;50.802;4.350;2023-04-09T08:36:28;23.00;;;17.48;;
22490;SDS011;11412;50.802;4.350;2023-04-09T08:38:54;23.10;;;17.75;;
22490;SDS011;11412;50.802;4.350;2023-04-09T08:41:21;21.23;;;16.42;;
22490;SDS011;11412;50.802;4.350;2023-04-09T08:43:52;21.48;;;17.23;;
22490;SDS011;11412;50.802;4.350;2023-04-09T08:46:19;25.00;;;17.20;;
22490;SDS011;11412;50.802;4.350;2023-04-09T08:48:45;21.75;;;16.08;;
22490;SDS011;11412;50.802;4.350;2023-04-09T08:51:16;22.20;;;16.70;;
22490;SDS011;11412;50.802;4.350;2023-04-09T08:53:46;21.52;;;15.80;;
22490;SDS011;11412;50.802;4.350;2023-04-09T08:56:14;22.45;;;16.45;;
22490;SDS011;11412;50.802;4.350;2023-04-09T08:58:41;22.00;;;17.15;;
22490;SDS011;11412;50.802;4.350;2023-04-09T09:04:03;21.88;;;16.40;;
22490;SDS011;11412;50.802;4.350;2023-04-09T09:06:35;20.60;;;16.95;;
22490;SDS011;11412;50.802;4.350;2023-04-09T09:09:15;22.88;;;17.63;;
22490;SDS011;11412;50.802;4.350;2023-04-09T09:11:45;20.35;;;16.92;;
22490;SDS011;11412;50.802;4.350;2023-04-09T09:14:16;20.20;;;15.10;;
22490;SDS011;11412;50.802;4.350;2023-04-09T09:16:44;23.00;;;16.70;;
22490;SDS011;11412;50.802;4.350;2023-04-09T09:19:29;22.80;;;17.92;;
22490;SDS011;11412;50.802;4.350;2023-04-09T09:21:58;20.05;;;16.17;;
22490;SDS011;11412;50.802;4.350;2023-04-09T09:24:29;23.88;;;17.88;;
22490;SDS011;11412;50.802;4.350;2023-04-09T09:26:56;19.13;;;15.93;;
22490;SDS011;11412;50.802;4.350;2023-04-09T09:29:23;21.63;;;17.08;;
22490;SDS011;11412;50.802;4.350;2023-04-09T09:31:49;21.38;;;16.73;;
22490;SDS011;11412;50.802;4.350;2023-04-09T09:34:16;20.10;;;16.75;;
22490;SDS011;11412;50.802;4.350;2023-04-09T09:36:44;22.08;;;17.73;;
22490;SDS011;11412;50.802;4.350;2023-04-09T09:39:10;21.63;;;16.98;;
22490;SDS011;11412;50.802;4.350;2023-04-09T09:41:39;20.88;;;15.52;;
22490;SDS011;11412;50.802;4.350;2023-04-09T09:44:06;21.30;;;16.42;;
22490;SDS011;11412;50.802;4.350;2023-04-09T09:46:34;20.45;;;16.70;;
22490;SDS011;11412;50.802;4.350;2023-04-09T09:49:01;22.00;;;17.65;;
22490;SDS011;11412;50.802;4.350;2023-04-09T09:51:27;22.30;;;16.88;;
22490;SDS011;11412;50.802;4.350;2023-04-09T09:53:55;20.52;;;16.48;;
22490;SDS011;11412;50.802;4.350;2023-04-09T09:56:23;22.48;;;17.85;;
22490;SDS011;11412;50.802;4.350;2023-04-09T09:59:00;21.00;;;17.25;;
22490;SDS011;11412;50.802;4.350;2023-04-09T10:01:40;20.08;;;16.10;;
22490;SDS011;11412;50.802;4.350;2023-04-09T10:04:06;23.65;;;18.05;;
22490;SDS011;11412;50.802;4.350;2023-04-09T10:06:38;21.30;;;17.60;;
22490;SDS011;11412;50.802;4.350;2023-04-09T10:09:08;20.00;;;16.30;;
22490;SDS011;11412;50.802;4.350;2023-04-09T10:11:35;20.90;;;17.10;;
22490;SDS011;11412;50.802;4.350;2023-04-09T10:14:02;20.15;;;16.98;;
22490;SDS011;11412;50.802;4.350;2023-04-09T10:16:29;22.23;;;16.52;;
22490;SDS011;11412;50.802;4.350;2023-04-09T10:18:56;26.27;;;17.17;;
22490;SDS011;11412;50.802;4.350;2023-04-09T10:21:37;21.38;;;17.20;;
22490;SDS011;11412;50.802;4.350;2023-04-09T10:24:23;21.15;;;17.27;;
22490;SDS011;11412;50.802;4.350;2023-04-09T10:26:53;24.75;;;17.33;;
22490;SDS011;11412;50.802;4.350;2023-04-09T10:29:26;19.00;;;16.48;;
22490;SDS011;11412;50.802;4.350;2023-04-09T10:31:53;21.42;;;17.27;;
22490;SDS011;11412;50.802;4.350;2023-04-09T10:34:30;23.67;;;17.65;;
22490;SDS011;11412;50.802;4.350;2023-04-09T10:37:00;22.83;;;17.85;;
22490;SDS011;11412;50.802;4.350;2023-04-09T10:39:26;21.77;;;16.42;;
22490;SDS011;11412;50.802;4.350;2023-04-09T10:41:54;20.73;;;16.55;;
22490;SDS011;11412;50.802;4.350;2023-04-09T10:44:24;20.13;;;16.33;;
22490;SDS011;11412;50.802;4.350;2023-04-09T10:46:51;19.02;;;15.85;;
22490;SDS011;11412;50.802;4.350;2023-04-09T10:49:19;19.85;;;16.02;;
22490;SDS011;11412;50.802;4.350;2023-04-09T10:59:31;21.83;;;15.27;;
22490;SDS011;11412;50.802;4.350;2023-04-09T11:01:57;18.58;;;15.07;;
22490;SDS011;11412;50.802;4.350;2023-04-09T11:04:23;21.58;;;15.27;;
22490;SDS011;11412;50.802;4.350;2023-04-09T11:07:10;19.85;;;14.38;;
22490;SDS011;11412;50.802;4.350;2023-04-09T11:09:40;21.33;;;15.10;;
22490;SDS011;11412;50.802;4.350;2023-04-09T11:12:06;19.83;;;14.82;;
22490;SDS011;11412;50.802;4.350;2023-04-09T11:14:32;21.75;;;14.73;;
22490;SDS011;11412;50.802;4.350;2023-04-09T11:16:57;23.13;;;17.58;;
22490;SDS011;11412;50.802;4.350;2023-04-09T11:19:23;21.73;;;16.23;;
22490;SDS011;11412;50.802;4.350;2023-04-09T11:21:49;20.83;;;16.20;;
22490;SDS011;11412;50.802;4.350;2023-04-09T11:24:17;21.15;;;15.73;;
22490;SDS011;11412;50.802;4.350;2023-04-09T11:26:43;19.83;;;12.48;;
22490;SDS011;11412;50.802;4.350;2023-04-09T11:29:09;17.63;;;14.60;;
22490;SDS011;11412;50.802;4.350;2023-04-09T11:31:35;19.73;;;14.15;;
22490;SDS011;11412;50.802;4.350;2023-04-09T11:34:01;18.33;;;13.93;;
22490;SDS011;11412;50.802;4.350;2023-04-09T11:36:27;15.50;;;11.65;;
22490;SDS011;11412;50.802;4.350;2023-04-09T11:38:56;15.75;;;12.35;;
22490;SDS011;11412;50.802;4.350;2023-04-09T11:41:34;13.07;;;10.93;;
22490;SDS011;11412;50.802;4.350;2023-04-09T11:44:01;12.88;;;11.18;;
22490;SDS011;11412;50.802;4.350;2023-04-09T11:46:28;14.48;;;11.25;;
22490;SDS011;11412;50.802;4.350;2023-04-09T11:48:58;20.10;;;14.65;;
22490;SDS011;11412;50.802;4.350;2023-04-09T11:51:23;14.80;;;10.90;;
22490;SDS011;11412;50.802;4.350;2023-04-09T11:53:51;9.90;;;7.38;;
22490;SDS011;11412;50.802;4.350;2023-04-09T11:56:17;7.95;;;6.57;;
22490;SDS011;11412;50.802;4.350;2023-04-09T11:58:45;8.80;;;7.90;;
22490;SDS011;11412;50.802;4.350;2023-04-09T12:01:12;11.50;;;10.00;;
22490;SDS011;11412;50.802;4.350;2023-04-09T12:03:38;14.57;;;10.82;;
22490;SDS011;11412;50.802;4.350;2023-04-09T12:06:05;14.45;;;12.23;;
22490;SDS011;11412;50.802;4.350;2023-04-09T12:08:34;14.70;;;11.88;;
22490;SDS011;11412;50.802;4.350;2023-04-09T12:11:10;12.82;;;10.48;;
22490;SDS011;11412;50.802;4.350;2023-04-09T12:13:37;13.57;;;10.60;;
22490;SDS011;11412;50.802;4.350;2023-04-09T12:16:07;13.70;;;9.70;;
22490;SDS011;11412;50.802;4.350;2023-04-09T12:18:37;10.63;;;9.05;;
22490;SDS011;11412;50.802;4.350;2023-04-09T12:21:03;9.88;;;7.93;;
22490;SDS011;11412;50.802;4.350;2023-04-09T12:23:30;11.43;;;9.45;;
22490;SDS011;11412;50.802;4.350;2023-04-09T12:25:57;11.35;;;9.15;;
22490;SDS011;11412;50.802;4.350;2023-04-09T12:28:26;12.57;;;9.38;;
22490;SDS011;11412;50.802;4.350;2023-04-09T12:30:53;10.18;;;8.35;;
22490;SDS011;11412;50.802;4.350;2023-04-09T12:33:19;10.52;;;8.40;;
22490;SDS011;11412;50.802;4.350;2023-04-09T12:35:45;10.65;;;8.15;;
22490;SDS011;11412;50.802;4.350;2023-04-09T12:38:11;8.45;;;7.53;;
22490;SDS011;11412;50.802;4.350;2023-04-09T12:40:37;10.25;;;8.13;;
22490;SDS011;11412;50.802;4.350;2023-04-09T12:43:03;10.38;;;7.50;;
22490;SDS011;11412;50.802;4.350;2023-04-09T12:45:29;8.95;;;7.47;;
22490;SDS011;11412;50.802;4.350;2023-04-09T12:47:55;8.50;;;7.53;;
22490;SDS011;11412;50.802;4.350;2023-04-09T12:50:21;11.77;;;7.85;;
22490;SDS011;11412;50.802;4.350;2023-04-09T12:52:46;10.68;;;9.45;;
22490;SDS011;11412;50.802;4.350;2023-04-09T12:55:12;8.63;;;7.70;;
22490;SDS011;11412;50.802;4.350;2023-04-09T12:57:40;9.80;;;8.73;;
22490;SDS011;11412;50.802;4.350;2023-04-09T13:00:11;10.48;;;9.40;;
22490;SDS011;11412;50.802;4.350;2023-04-09T13:02:37;11.30;;;9.13;;
22490;SDS011;11412;50.802;4.350;2023-04-09T13:05:03;10.57;;;9.20;;
22490;SDS011;11412;50.802;4.350;2023-04-09T13:07:29;9.32;;;8.43;;
22490;SDS011;11412;50.802;4.350;2023-04-09T13:09:55;12.00;;;8.57;;
22490;SDS011;11412;50.802;4.350;2023-04-09T13:12:21;8.38;;;7.50;;
22490;SDS011;11412;50.802;4.350;2023-04-09T13:14:48;12.38;;;10.13;;
22490;SDS011;11412;50.802;4.350;2023-04-09T13:17:15;9.60;;;7.07;;
22490;SDS011;11412;50.802;4.350;2023-04-09T13:19:41;12.30;;;6.72;;
22490;SDS011;11412;50.802;4.350;2023-04-09T13:22:06;6.78;;;6.13;;
22490;SDS011;11412;50.802;4.350;2023-04-09T13:24:36;7.10;;;5.88;;
22490;SDS011;11412;50.802;4.350;2023-04-09T13:27:03;6.50;;;5.90;;
22490;SDS011;11412;50.802;4.350;2023-04-09T13:29:29;5.80;;;5.20;;
22490;SDS011;11412;50.802;4.350;2023-04-09T13:31:56;7.93;;;6.22;;
22490;SDS011;11412;50.802;4.350;2023-04-09T13:34:22;6.78;;;6.07;;
22490;SDS011;11412;50.802;4.350;2023-04-09T13:36:48;8.93;;;7.03;;
22490;SDS011;11412;50.802;4.350;2023-04-09T13:39:14;8.63;;;5.93;;
22490;SDS011;11412;50.802;4.350;2023-04-09T13:41:40;9.25;;;7.00;;
22490;SDS011;11412;50.802;4.350;2023-04-09T13:44:06;9.90;;;7.57;;
22490;SDS011;11412;50.802;4.350;2023-04-09T13:46:32;8.65;;;7.75;;
22490;SDS011;11412;50.802;4.350;2023-04-09T13:48:57;9.50;;;8.05;;
22490;SDS011;11412;50.802;4.350;2023-04-09T13:51:24;9.73;;;7.97;;
22490;SDS011;11412;50.802;4.350;2023-04-09T13:53:51;7.82;;;7.07;;
22490;SDS011;11412;50.802;4.350;2023-04-09T13:56:17;8.77;;;7.60;;
22490;SDS011;11412;50.802;4.350;2023-04-09T13:58:43;7.78;;;6.70;;
22490;SDS011;11412;50.802;4.350;2023-04-09T14:01:09;8.98;;;7.32;;
22490;SDS011;11412;50.802;4.350;2023-04-09T14:03:35;7.85;;;7.05;;
22490;SDS011;11412;50.802;4.350;2023-04-09T14:06:04;8.57;;;6.78;;
22490;SDS011;11412;50.802;4.350;2023-04-09T14:08:35;7.45;;;6.70;;
22490;SDS011;11412;50.802;4.350;2023-04-09T14:11:01;6.65;;;5.95;;
22490;SDS011;11412;50.802;4.350;2023-04-09T14:13:27;6.45;;;5.85;;
22490;SDS011;11412;50.802;4.350;2023-04-09T14:15:53;5.88;;;5.28;;
22490;SDS011;11412;50.802;4.350;2023-04-09T14:18:18;5.50;;;5.00;;
22490;SDS011;11412;50.802;4.350;2023-04-09T14:20:44;5.57;;;4.95;;
22490;SDS011;11412;50.802;4.350;2023-04-09T14:23:10;5.13;;;4.57;;
22490;SDS011;11412;50.802;4.350;2023-04-09T14:25:35;6.00;;;4.47;;
22490;SDS011;11412;50.802;4.350;2023-04-09T14:28:02;4.97;;;4.47;;
22490;SDS011;11412;50.802;4.350;2023-04-09T14:30:28;4.85;;;4.10;;
22490;SDS011;11412;50.802;4.350;2023-04-09T14:32:53;5.28;;;4.78;;
22490;SDS011;11412;50.802;4.350;2023-04-09T14:35:19;5.25;;;4.75;;
22490;SDS011;11412;50.802;4.350;2023-04-09T14:37:45;4.72;;;4.10;;
22490;SDS011;11412;50.802;4.350;2023-04-09T14:40:11;5.40;;;4.90;;
22490;SDS011;11412;50.802;4.350;2023-04-09T14:42:37;7.18;;;5.63;;
22490;SDS011;11412;50.802;4.350;2023-04-09T14:45:04;5.93;;;5.32;;
22490;SDS011;11412;50.802;4.350;2023-04-09T14:47:31;5.55;;;4.00;;